createdAt,value
2018-08-25T00:00:34.012Z,97530.00
2018-08-25T00:04:36.203Z,97522.00
2018-08-25T00:08:38.493Z,97520.00
2018-08-25T00:12:40.628Z,97531.00
2018-08-25T00:16:43.276Z,97527.00
2018-08-25T00:20:45.695Z,97522.00
2018-08-25T00:24:47.851Z,97521.00
2018-08-25T00:28:50.346Z,97517.00
2018-08-25T00:32:52.555Z,97505.00
2018-08-25T00:36:54.687Z,97516.00
2018-08-25T00:40:56.910Z,97516.00
2018-08-25T00:44:59.097Z,97502.00
2018-08-25T00:49:01.268Z,97499.00
2018-08-25T00:53:03.450Z,97491.00
2018-08-25T00:57:05.671Z,97490.00
2018-08-25T01:01:07.794Z,97496.00
2018-08-25T01:05:09.969Z,97492.00
2018-08-25T01:09:12.159Z,97496.00
2018-08-25T01:13:14.363Z,97480.00
2018-08-25T01:17:16.555Z,97484.00
2018-08-25T01:21:19.187Z,97479.00
2018-08-25T01:25:21.351Z,97469.00
2018-08-25T01:29:23.638Z,97468.00
2018-08-25T01:33:25.846Z,97456.00
2018-08-25T01:37:27.982Z,97478.00
2018-08-25T01:41:30.120Z,97464.00
2018-08-25T01:45:32.320Z,97479.00
2018-08-25T01:49:34.986Z,97464.00
2018-08-25T01:53:37.194Z,97453.00
2018-08-25T01:57:39.368Z,97448.00
2018-08-25T02:01:41.499Z,97448.00
2018-08-25T02:05:43.976Z,97445.00
2018-08-25T02:09:46.272Z,97453.00
2018-08-25T02:13:48.406Z,97443.00
2018-08-25T02:17:51.533Z,97447.00
2018-08-25T02:21:53.661Z,97438.00
2018-08-25T02:25:55.807Z,97432.00
2018-08-25T02:29:57.963Z,97434.00
2018-08-25T02:34:00.268Z,97421.00
2018-08-25T02:38:02.450Z,97416.00
2018-08-25T02:42:04.655Z,97418.00
2018-08-25T02:46:06.938Z,97417.00
2018-08-25T02:50:09.219Z,97418.00
2018-08-25T02:54:11.366Z,97418.00
2018-08-25T02:58:13.519Z,97410.00
2018-08-25T03:02:15.651Z,97395.00
2018-08-25T03:06:17.792Z,97387.00
2018-08-25T03:10:19.942Z,97387.00
2018-08-25T03:14:22.075Z,97386.00
2018-08-25T03:18:24.282Z,97387.00
2018-08-25T03:22:26.417Z,97379.00
2018-08-25T03:26:28.552Z,97394.00
2018-08-25T03:30:30.647Z,97376.00
2018-08-25T03:34:32.758Z,97371.00
2018-08-25T03:38:35.206Z,97369.00
2018-08-25T03:42:37.360Z,97374.00
2018-08-25T03:46:39.759Z,97372.00
2018-08-25T03:50:41.893Z,97362.00
2018-08-25T03:54:44.034Z,97365.00
2018-08-25T03:58:46.286Z,97362.00
2018-08-25T04:02:48.683Z,97360.00
2018-08-25T04:06:50.998Z,97354.00
2018-08-25T04:10:53.195Z,97356.00
2018-08-25T04:14:55.421Z,97357.00
2018-08-25T04:18:57.488Z,97357.00
2018-08-25T04:22:59.635Z,97354.00
2018-08-25T04:27:01.780Z,97354.00
2018-08-25T04:31:04.010Z,97355.00
2018-08-25T04:35:06.214Z,97348.00
2018-08-25T04:39:09.738Z,97340.00
2018-08-25T04:43:11.984Z,97338.00
2018-08-25T04:47:14.101Z,97342.00
2018-08-25T04:51:16.978Z,97342.00
2018-08-25T04:55:19.217Z,97348.00
2018-08-25T04:59:21.352Z,97334.00
2018-08-25T05:03:23.499Z,97337.00
2018-08-25T05:07:25.688Z,97338.00
2018-08-25T05:11:27.821Z,97353.00
2018-08-25T05:15:29.943Z,97347.00
2018-08-25T05:19:32.151Z,97359.00
2018-08-25T05:23:34.276Z,97366.00
2018-08-25T05:27:36.512Z,97361.00
2018-08-25T05:31:38.641Z,97365.00
2018-08-25T05:35:41.146Z,97352.00
2018-08-25T05:39:43.338Z,97352.00
2018-08-25T05:43:45.635Z,97346.00
2018-08-25T05:47:47.760Z,97340.00
2018-08-25T05:51:49.931Z,97354.00
2018-08-25T05:55:52.110Z,97344.00
2018-08-25T05:59:54.350Z,97338.00
2018-08-25T06:03:56.498Z,97338.00
2018-08-25T06:07:58.685Z,97349.00
2018-08-25T06:12:00.877Z,97341.00
2018-08-25T06:16:03.032Z,97327.00
2018-08-25T06:20:05.248Z,97334.00
2018-08-25T06:24:07.379Z,97327.00
2018-08-25T06:28:09.515Z,97338.00
2018-08-25T06:32:11.693Z,97339.00
2018-08-25T06:36:13.903Z,97337.00
2018-08-25T06:40:16.065Z,97357.00
2018-08-25T06:44:18.223Z,97355.00
2018-08-25T06:48:20.432Z,97350.00
2018-08-25T06:52:22.588Z,97360.00
2018-08-25T06:56:24.741Z,97356.00
2018-08-25T07:00:26.961Z,97360.00
2018-08-25T07:04:29.419Z,97369.00
2018-08-25T07:08:31.567Z,97366.00
2018-08-25T07:12:33.783Z,97368.00
2018-08-25T07:16:35.978Z,97376.00
2018-08-25T07:20:38.126Z,97375.00
2018-08-25T07:24:40.298Z,97367.00
2018-08-25T07:28:42.462Z,97377.00
2018-08-25T07:32:44.736Z,97378.00
2018-08-25T07:36:46.910Z,97381.00
2018-08-25T07:40:49.498Z,97388.00
2018-08-25T07:44:51.724Z,97381.00
2018-08-25T07:48:53.861Z,97378.00
2018-08-25T07:52:56.063Z,97384.00
2018-08-25T07:56:58.211Z,97387.00
2018-08-25T08:01:00.358Z,97383.00
2018-08-25T08:05:02.536Z,97373.00
2018-08-25T08:09:06.898Z,97396.00
2018-08-25T08:13:09.039Z,97390.00
2018-08-25T08:17:11.548Z,97385.00
2018-08-25T08:21:13.963Z,97406.00
2018-08-25T08:25:16.164Z,97403.00
2018-08-25T08:29:18.356Z,97406.00
2018-08-25T08:33:20.567Z,97417.00
2018-08-25T08:37:22.802Z,97419.00
2018-08-25T08:41:24.950Z,97421.00
2018-08-25T08:45:27.294Z,97416.00
2018-08-25T08:49:31.800Z,97420.00
2018-08-25T08:53:33.967Z,97428.00
2018-08-25T08:57:36.648Z,97436.00
2018-08-25T09:01:38.827Z,97431.00
2018-08-25T09:05:41.448Z,97437.00
2018-08-25T09:09:43.665Z,97445.00
2018-08-25T09:13:45.991Z,97435.00
2018-08-25T09:17:48.171Z,97441.00
2018-08-25T09:21:50.414Z,97436.00
2018-08-25T09:25:52.670Z,97430.00
2018-08-25T09:29:54.795Z,97436.00
2018-08-25T09:33:56.966Z,97433.00
2018-08-25T09:37:59.168Z,97439.00
2018-08-25T09:42:01.454Z,97437.00
2018-08-25T09:46:03.678Z,97429.00
2018-08-25T09:50:06.512Z,97435.00
2018-08-25T09:54:08.661Z,97432.00
2018-08-25T09:58:10.857Z,97428.00
2018-08-25T10:02:13.406Z,97433.00
2018-08-25T10:06:15.859Z,97434.00
2018-08-25T10:10:18.060Z,97439.00
2018-08-25T10:14:20.226Z,97436.00
2018-08-25T10:18:22.369Z,97439.00
2018-08-25T10:22:24.599Z,97434.00
2018-08-25T10:26:26.750Z,97445.00
2018-08-25T10:30:28.926Z,97444.00
2018-08-25T10:34:31.158Z,97445.00
2018-08-25T10:38:33.340Z,97458.00
2018-08-25T10:42:35.519Z,97448.00
2018-08-25T10:46:39.011Z,97451.00
2018-08-25T10:50:41.243Z,97455.00
2018-08-25T10:54:43.579Z,97465.00
2018-08-25T10:58:45.746Z,97460.00
2018-08-25T11:02:47.943Z,97462.00
2018-08-25T11:06:50.155Z,97456.00
2018-08-25T11:10:52.341Z,97454.00
2018-08-25T11:14:54.523Z,97454.00
2018-08-25T11:18:56.747Z,97458.00
2018-08-25T11:22:58.928Z,97465.00
2018-08-25T11:27:01.091Z,97471.00
2018-08-25T11:31:03.264Z,97465.00
2018-08-25T11:35:06.173Z,97468.00
2018-08-25T11:39:09.436Z,97469.00
2018-08-25T11:43:11.630Z,97458.00
2018-08-25T11:47:15.172Z,97461.00
2018-08-25T11:51:17.392Z,97460.00
2018-08-25T11:55:19.569Z,97455.00
2018-08-25T11:59:22.624Z,97461.00
2018-08-25T12:03:24.908Z,97461.00
2018-08-25T12:07:27.752Z,97462.00
2018-08-25T12:11:30.875Z,97462.00
2018-08-25T12:15:33.027Z,97460.00
2018-08-25T12:19:35.283Z,97466.00
2018-08-25T12:23:37.470Z,97463.00
2018-08-25T12:27:39.693Z,97465.00
2018-08-25T12:31:41.924Z,97471.00
2018-08-25T12:35:44.104Z,97483.00
2018-08-25T12:39:46.279Z,97482.00
2018-08-25T12:43:48.684Z,97482.00
2018-08-25T12:47:50.844Z,97493.00
2018-08-25T12:51:53.043Z,97486.00
2018-08-25T12:55:55.177Z,97497.00
2018-08-25T12:59:58.059Z,97501.00
2018-08-25T13:04:00.241Z,97498.00
2018-08-25T13:08:02.692Z,97496.00
2018-08-25T13:12:05.116Z,97511.00
2018-08-25T13:16:07.285Z,97509.00
2018-08-25T13:20:09.558Z,97505.00
2018-08-25T13:24:12.494Z,97509.00
2018-08-25T13:28:14.716Z,97520.00
2018-08-25T13:32:16.894Z,97524.00
2018-08-25T13:36:19.762Z,97518.00
2018-08-25T13:40:22.663Z,97525.00
2018-08-25T13:44:25.216Z,97514.00
2018-08-25T13:48:27.732Z,97521.00
2018-08-25T13:52:30.030Z,97523.00
2018-08-25T13:56:32.306Z,97524.00
2018-08-25T14:00:34.483Z,97524.00
2018-08-25T14:04:36.684Z,97527.00
2018-08-25T14:08:38.875Z,97519.00
2018-08-25T14:12:41.525Z,97530.00
2018-08-25T14:16:43.733Z,97531.00
2018-08-25T14:20:45.919Z,97532.00
2018-08-25T14:24:48.083Z,97533.00
2018-08-25T14:28:50.330Z,97538.00
2018-08-25T14:32:52.525Z,97528.00
2018-08-25T14:36:54.732Z,97536.00
2018-08-25T14:40:57.566Z,97540.00
2018-08-25T14:45:00.277Z,97534.00
2018-08-25T14:49:02.665Z,97545.00
2018-08-25T14:53:05.436Z,97538.00
2018-08-25T14:57:07.659Z,97548.00
2018-08-25T15:01:09.843Z,97546.00
2018-08-25T15:05:12.073Z,97549.00
2018-08-25T15:09:14.271Z,97553.00
2018-08-25T15:13:16.528Z,97551.00
2018-08-25T15:17:19.298Z,97561.00
2018-08-25T15:21:21.494Z,97552.00
2018-08-25T15:25:24.050Z,97561.00
2018-08-25T15:29:26.226Z,97565.00
2018-08-25T15:33:28.359Z,97566.00
2018-08-25T15:37:30.560Z,97573.00
2018-08-25T15:41:32.766Z,97564.00
2018-08-25T15:45:34.967Z,97570.00
2018-08-25T15:49:37.160Z,97576.00
2018-08-25T15:53:39.420Z,97574.00
2018-08-25T15:57:41.634Z,97582.00
2018-08-25T16:01:43.803Z,97576.00
2018-08-25T16:05:46.015Z,97581.00
2018-08-25T16:09:48.655Z,97589.00
2018-08-25T16:13:50.914Z,97584.00
2018-08-25T16:17:53.083Z,97591.00
2018-08-25T16:21:55.313Z,97583.00
2018-08-25T16:25:57.557Z,97590.00
2018-08-25T16:29:59.734Z,97601.00
2018-08-25T16:34:01.984Z,97600.00
2018-08-25T16:38:04.188Z,97600.00
2018-08-25T16:42:07.309Z,97615.00
2018-08-25T16:46:09.474Z,97623.00
2018-08-25T16:50:11.657Z,97618.00
2018-08-25T16:54:13.862Z,97610.00
2018-08-25T16:58:16.725Z,97611.00
2018-08-25T17:02:18.907Z,97619.00
2018-08-25T17:06:21.875Z,97633.00
2018-08-25T17:10:24.073Z,97626.00
2018-08-25T17:14:26.269Z,97625.00
2018-08-25T17:18:28.446Z,97638.00
2018-08-25T17:22:30.615Z,97626.00
2018-08-25T17:26:32.814Z,97634.00
2018-08-25T17:30:34.999Z,97636.00
2018-08-25T17:34:37.224Z,97645.00
2018-08-25T17:38:39.426Z,97668.00
2018-08-25T17:42:42.415Z,97677.00
2018-08-25T17:46:44.643Z,97685.00
2018-08-25T17:50:46.943Z,97680.00
2018-08-25T17:54:49.124Z,97674.00
2018-08-25T17:58:51.790Z,97681.00
2018-08-25T18:02:53.972Z,97684.00
2018-08-25T18:06:56.283Z,97676.00
2018-08-25T18:10:58.549Z,97683.00
2018-08-25T18:15:00.643Z,97682.00
2018-08-25T18:19:03.585Z,97682.00
2018-08-25T18:23:06.159Z,97689.00
2018-08-25T18:27:08.389Z,97690.00
2018-08-25T18:31:10.931Z,97694.00
2018-08-25T18:35:13.471Z,97696.00
2018-08-25T18:39:15.670Z,97704.00
2018-08-25T18:43:18.540Z,97717.00
2018-08-25T18:47:20.763Z,97727.00
2018-08-25T18:51:22.919Z,97727.00
2018-08-25T18:55:25.906Z,97725.00
2018-08-25T18:59:28.420Z,97728.00
2018-08-25T19:03:30.948Z,97739.00
2018-08-25T19:07:33.407Z,97738.00
2018-08-25T19:11:35.739Z,97750.00
2018-08-25T19:15:38.175Z,97749.00
2018-08-25T19:19:40.696Z,97754.00
2018-08-25T19:23:43.219Z,97754.00
2018-08-25T19:27:45.737Z,97758.00
2018-08-25T19:31:48.326Z,97772.00
2018-08-25T19:35:51.311Z,97770.00
2018-08-25T19:39:53.779Z,97779.00
2018-08-25T19:43:56.280Z,97779.00
2018-08-25T19:47:58.823Z,97788.00
2018-08-25T19:52:01.266Z,97789.00
2018-08-25T19:56:03.626Z,97795.00
2018-08-25T20:00:09.376Z,97797.00
2018-08-25T20:04:11.687Z,97805.00
2018-08-25T20:08:13.939Z,97800.00
2018-08-25T20:12:16.354Z,97802.00
2018-08-25T20:16:18.643Z,97811.00
2018-08-25T20:20:22.268Z,97801.00
2018-08-25T20:24:24.622Z,97807.00
2018-08-25T20:28:26.828Z,97802.00
2018-08-25T20:32:29.305Z,97805.00
2018-08-25T20:36:31.628Z,97805.00
2018-08-25T20:40:34.115Z,97819.00
2018-08-25T20:44:36.515Z,97813.00
2018-08-25T20:48:38.845Z,97814.00
2018-08-25T20:52:41.047Z,97808.00
2018-08-25T20:56:43.183Z,97809.00
2018-08-25T21:00:45.388Z,97820.00
2018-08-25T21:04:47.602Z,97824.00
2018-08-25T21:08:49.823Z,97834.00
2018-08-25T21:12:52.122Z,97823.00
2018-08-25T21:16:54.314Z,97832.00
2018-08-25T21:20:56.922Z,97840.00
2018-08-25T21:24:59.116Z,97839.00
2018-08-25T21:29:01.318Z,97838.00
2018-08-25T21:33:03.499Z,97845.00
2018-08-25T21:37:05.806Z,97849.00
2018-08-25T21:41:08.650Z,97853.00
2018-08-25T21:45:10.817Z,97853.00
2018-08-25T21:49:13.087Z,97848.00
2018-08-25T21:53:15.292Z,97861.00
2018-08-25T21:57:17.453Z,97867.00
2018-08-25T22:01:19.902Z,97863.00
2018-08-25T22:05:22.123Z,97866.00
2018-08-25T22:09:24.336Z,97858.00
2018-08-25T22:13:26.487Z,97858.00
2018-08-25T22:17:28.686Z,97861.00
2018-08-25T22:21:30.824Z,97855.00
2018-08-25T22:25:33.439Z,97863.00
2018-08-25T22:29:35.634Z,97857.00
2018-08-25T22:33:37.773Z,97859.00
2018-08-25T22:37:39.907Z,97864.00
2018-08-25T22:41:42.269Z,97861.00
2018-08-25T22:45:45.031Z,97860.00
2018-08-25T22:49:47.312Z,97574.00
2018-08-25T22:53:49.498Z,97866.00
2018-08-25T22:57:51.708Z,97867.00
2018-08-25T23:01:53.854Z,97863.00
2018-08-25T23:05:56.064Z,97864.00
2018-08-25T23:09:58.223Z,97869.00
2018-08-25T23:14:00.404Z,97861.00
2018-08-25T23:18:02.583Z,97869.00
2018-08-25T23:22:04.776Z,97874.00
2018-08-25T23:26:07.008Z,97873.00
2018-08-25T23:30:09.487Z,97873.00
2018-08-25T23:34:11.600Z,97864.00
2018-08-25T23:38:13.793Z,97877.00
2018-08-25T23:42:15.971Z,97878.00
2018-08-25T23:46:18.103Z,97873.00
2018-08-25T23:50:20.252Z,97880.00
2018-08-25T23:54:22.441Z,97875.00
2018-08-25T23:58:24.610Z,97881.00
